createdAt,value
2018-04-07T00:01:59.588Z,6.70
2018-04-07T00:04:27.792Z,6.70
2018-04-07T00:06:55.985Z,6.60
2018-04-07T00:09:24.920Z,6.60
2018-04-07T00:11:53.012Z,6.50
2018-04-07T00:14:21.226Z,6.50
2018-04-07T00:16:50.150Z,6.40
2018-04-07T00:19:19.109Z,6.40
2018-04-07T00:21:48.088Z,6.30
2018-04-07T00:24:17.098Z,6.20
2018-04-07T00:26:45.975Z,6.20
2018-04-07T00:29:14.880Z,6.20
2018-04-07T00:31:43.793Z,6.20
2018-04-07T00:34:11.913Z,6.10
2018-04-07T00:36:40.028Z,6.20
2018-04-07T00:39:08.274Z,6.10
2018-04-07T00:41:37.299Z,6.00
2018-04-07T00:44:05.428Z,6.00
2018-04-07T00:46:34.361Z,6.00
2018-04-07T00:49:02.505Z,5.90
2018-04-07T00:51:31.484Z,6.00
2018-04-07T00:54:00.379Z,5.90
2018-04-07T00:56:29.407Z,5.90
2018-04-07T00:58:57.531Z,5.90
2018-04-07T01:01:25.634Z,6.00
2018-04-07T01:03:53.758Z,5.90
2018-04-07T01:06:21.990Z,5.90
2018-04-07T01:08:50.091Z,5.80
2018-04-07T01:11:18.232Z,5.80
2018-04-07T01:13:46.404Z,5.70
2018-04-07T01:16:15.396Z,5.70
2018-04-07T01:18:44.282Z,5.60
2018-04-07T01:21:12.430Z,5.50
2018-04-07T01:23:41.448Z,5.50
2018-04-07T01:26:10.339Z,5.50
2018-04-07T01:28:38.473Z,5.40
2018-04-07T01:31:07.390Z,5.40
2018-04-07T01:33:35.518Z,5.40
2018-04-07T01:36:04.524Z,5.40
2018-04-07T01:38:33.503Z,5.40
2018-04-07T01:41:01.727Z,5.40
2018-04-07T01:43:29.825Z,5.30
2018-04-07T01:45:57.945Z,5.40
2018-04-07T01:48:26.102Z,5.30
2018-04-07T01:50:55.014Z,5.30
2018-04-07T01:53:23.166Z,5.30
2018-04-07T01:55:52.503Z,5.30
2018-04-07T01:58:20.610Z,5.20
2018-04-07T02:00:50.277Z,5.20
2018-04-07T02:03:19.226Z,5.20
2018-04-07T02:05:48.108Z,5.20
2018-04-07T02:08:16.232Z,5.10
2018-04-07T02:10:44.503Z,5.10
2018-04-07T02:13:13.492Z,5.00
2018-04-07T02:15:42.386Z,5.10
2018-04-07T02:18:10.466Z,5.00
2018-04-07T02:20:38.600Z,5.00
2018-04-07T02:23:06.717Z,5.00
2018-04-07T02:25:34.844Z,5.00
2018-04-07T02:28:02.973Z,5.00
2018-04-07T02:30:31.174Z,4.90
2018-04-07T02:33:00.109Z,4.80
2018-04-07T02:35:28.336Z,4.80
2018-04-07T02:37:56.448Z,4.80
2018-04-07T02:40:24.680Z,4.80
2018-04-07T02:42:53.659Z,4.80
2018-04-07T02:45:21.781Z,4.70
2018-04-07T02:47:49.951Z,4.80
2018-04-07T02:50:18.916Z,4.70
2018-04-07T02:52:47.941Z,4.70
2018-04-07T02:55:16.033Z,4.70
2018-04-07T02:57:44.253Z,4.60
2018-04-07T03:00:13.131Z,4.60
2018-04-07T03:02:42.124Z,4.60
2018-04-07T03:05:11.046Z,4.50
2018-04-07T03:07:40.006Z,4.50
2018-04-07T03:10:08.909Z,4.50
2018-04-07T03:12:37.772Z,4.50
2018-04-07T03:15:06.733Z,4.50
2018-04-07T03:17:35.080Z,4.50
2018-04-07T03:20:03.970Z,4.50
2018-04-07T03:22:32.858Z,4.50
2018-04-07T03:25:00.977Z,4.50
2018-04-07T03:27:29.204Z,4.50
2018-04-07T03:29:58.148Z,4.50
2018-04-07T03:32:27.051Z,4.40
2018-04-07T03:34:55.973Z,4.30
2018-04-07T03:37:24.823Z,4.30
2018-04-07T03:39:53.851Z,4.20
2018-04-07T03:42:22.713Z,4.20
2018-04-07T03:44:51.701Z,4.10
2018-04-07T03:47:20.574Z,4.10
2018-04-07T03:49:49.511Z,4.10
2018-04-07T03:52:18.443Z,4.10
2018-04-07T03:54:46.552Z,4.10
2018-04-07T03:57:14.683Z,4.10
2018-04-07T03:59:42.821Z,4.10
2018-04-07T04:02:10.987Z,4.10
2018-04-07T04:04:39.878Z,4.00
2018-04-07T04:07:08.734Z,4.00
2018-04-07T04:09:37.655Z,3.90
2018-04-07T04:12:05.749Z,3.90
2018-04-07T04:14:33.928Z,3.90
2018-04-07T04:17:02.068Z,3.90
2018-04-07T04:19:30.929Z,3.80
2018-04-07T04:21:59.946Z,3.80
2018-04-07T04:24:28.806Z,3.80
2018-04-07T04:26:57.757Z,3.80
2018-04-07T04:29:25.999Z,3.70
2018-04-07T04:31:54.125Z,3.70
2018-04-07T04:34:23.061Z,3.70
2018-04-07T04:36:51.949Z,3.60
2018-04-07T04:39:20.821Z,3.60
2018-04-07T04:41:49.112Z,3.60
2018-04-07T04:44:17.304Z,3.60
2018-04-07T04:46:45.412Z,3.60
2018-04-07T04:49:14.304Z,3.70
2018-04-07T04:51:43.233Z,3.80
2018-04-07T04:54:12.123Z,3.80
2018-04-07T04:56:41.084Z,3.80
2018-04-07T04:59:10.074Z,3.80
2018-04-07T05:01:38.957Z,3.80
2018-04-07T05:04:07.851Z,3.80
2018-04-07T05:06:36.833Z,3.80
2018-04-07T05:09:05.832Z,3.90
2018-04-07T05:11:34.037Z,3.80
2018-04-07T05:14:03.039Z,3.90
2018-04-07T05:16:31.140Z,3.90
2018-04-07T05:18:59.273Z,3.90
2018-04-07T05:21:27.400Z,3.90
2018-04-07T05:23:56.336Z,4.00
2018-04-07T05:26:25.288Z,4.00
2018-04-07T05:28:54.223Z,4.10
2018-04-07T05:31:22.312Z,4.10
2018-04-07T05:33:50.458Z,4.10
2018-04-07T05:36:18.731Z,4.30
2018-04-07T05:38:47.726Z,4.50
2018-04-07T05:41:15.860Z,4.50
2018-04-07T05:43:44.739Z,4.70
2018-04-07T05:46:13.782Z,4.80
2018-04-07T05:48:41.913Z,4.70
2018-04-07T05:51:10.830Z,5.00
2018-04-07T05:53:39.110Z,5.00
2018-04-07T05:56:07.285Z,5.10
2018-04-07T05:58:35.454Z,5.20
2018-04-07T06:01:03.566Z,5.30
2018-04-07T06:03:31.694Z,5.40
2018-04-07T06:05:59.867Z,5.60
2018-04-07T06:08:27.980Z,5.70
2018-04-07T06:10:56.215Z,5.70
2018-04-07T06:13:24.337Z,5.90
2018-04-07T06:15:54.067Z,6.00
2018-04-07T06:18:22.981Z,6.10
2018-04-07T06:20:51.112Z,6.10
2018-04-07T06:23:20.145Z,6.30
2018-04-07T06:25:48.316Z,6.30
2018-04-07T06:28:17.310Z,6.60
2018-04-07T06:30:45.422Z,6.60
2018-04-07T06:33:13.664Z,6.70
2018-04-07T06:35:41.824Z,6.80
2018-04-07T06:38:10.685Z,7.00
2018-04-07T06:40:39.704Z,7.10
2018-04-07T06:43:07.835Z,7.00
2018-04-07T06:45:36.764Z,7.30
2018-04-07T06:48:05.005Z,7.20
2018-04-07T06:50:33.117Z,7.30
2018-04-07T06:53:01.371Z,7.30
2018-04-07T06:55:30.374Z,7.40
2018-04-07T06:57:59.245Z,7.40
2018-04-07T07:00:27.435Z,7.40
2018-04-07T07:02:55.608Z,7.50
2018-04-07T07:05:23.725Z,7.60
2018-04-07T07:07:51.961Z,7.70
2018-04-07T07:10:20.134Z,7.90
2018-04-07T07:12:48.298Z,8.00
2018-04-07T07:15:17.286Z,8.20
2018-04-07T07:17:46.234Z,8.30
2018-04-07T07:20:15.172Z,8.40
2018-04-07T07:22:43.274Z,8.40
2018-04-07T07:25:11.414Z,8.50
2018-04-07T07:27:39.526Z,8.50
2018-04-07T07:30:08.410Z,8.80
2018-04-07T07:32:36.562Z,8.70
2018-04-07T07:35:04.721Z,8.80
2018-04-07T07:37:32.836Z,8.80
2018-04-07T07:40:00.965Z,8.90
2018-04-07T07:42:29.127Z,8.90
2018-04-07T07:44:57.260Z,9.00
2018-04-07T07:47:26.164Z,9.10
2018-04-07T07:49:55.050Z,9.20
2018-04-07T07:52:23.961Z,9.30
2018-04-07T07:54:52.097Z,9.30
2018-04-07T07:57:21.129Z,9.50
2018-04-07T07:59:49.982Z,9.50
2018-04-07T08:02:18.897Z,9.60
2018-04-07T08:04:47.898Z,9.70
2018-04-07T08:07:16.754Z,9.80
2018-04-07T08:09:46.601Z,9.80
2018-04-07T08:12:14.764Z,9.80
2018-04-07T08:14:42.905Z,9.90
2018-04-07T08:17:11.134Z,10.00
2018-04-07T08:19:39.236Z,10.10
2018-04-07T08:22:07.457Z,10.20
2018-04-07T08:24:36.437Z,10.40
2018-04-07T08:27:04.616Z,10.40
2018-04-07T08:29:33.493Z,10.70
2018-04-07T08:32:01.679Z,10.60
2018-04-07T08:34:29.856Z,10.70
2018-04-07T08:36:57.957Z,10.80
2018-04-07T08:39:26.257Z,10.90
2018-04-07T08:41:54.316Z,11.10
2018-04-07T08:44:22.520Z,11.20
2018-04-07T08:46:50.715Z,11.30
2018-04-07T08:49:18.897Z,11.50
2018-04-07T08:51:47.036Z,11.60
2018-04-07T08:54:15.192Z,11.70
2018-04-07T08:56:44.094Z,11.90
2018-04-07T08:59:13.010Z,12.00
2018-04-07T09:01:41.183Z,11.90
2018-04-07T09:04:09.352Z,12.10
2018-04-07T09:06:37.483Z,12.20
2018-04-07T09:09:05.673Z,12.40
2018-04-07T09:11:33.871Z,12.50
2018-04-07T09:14:01.968Z,12.50
2018-04-07T09:16:30.192Z,12.60
2018-04-07T09:18:58.320Z,12.80
2018-04-07T09:21:26.460Z,12.90
2018-04-07T09:23:54.729Z,12.90
2018-04-07T09:26:22.860Z,13.10
2018-04-07T09:28:51.046Z,13.20
2018-04-07T09:31:25.143Z,13.40
2018-04-07T09:33:54.084Z,13.80
2018-04-07T09:36:22.201Z,13.80
2018-04-07T09:38:50.344Z,14.00
2018-04-07T09:41:18.577Z,14.20
2018-04-07T09:43:47.489Z,14.50
2018-04-07T09:46:15.601Z,14.40
2018-04-07T09:48:43.826Z,14.60
2018-04-07T09:51:11.940Z,14.70
2018-04-07T09:53:40.078Z,14.70
2018-04-07T09:56:08.203Z,14.80
2018-04-07T09:58:37.157Z,14.80
2018-04-07T10:01:05.300Z,14.80
2018-04-07T10:03:33.474Z,14.80
2018-04-07T10:06:01.603Z,14.90
2018-04-07T10:08:29.720Z,15.10
2018-04-07T10:10:57.888Z,15.10
2018-04-07T10:13:26.032Z,15.10
2018-04-07T10:15:54.950Z,15.40
2018-04-07T10:18:23.124Z,15.40
2018-04-07T10:20:51.294Z,15.60
2018-04-07T10:23:19.464Z,15.90
2018-04-07T10:25:47.599Z,16.10
2018-04-07T10:28:15.842Z,16.00
2018-04-07T10:30:43.982Z,16.20
2018-04-07T10:33:12.076Z,16.40
2018-04-07T10:35:40.331Z,16.50
2018-04-07T10:38:08.500Z,16.70
2018-04-07T10:40:37.518Z,17.00
2018-04-07T10:43:05.680Z,17.00
2018-04-07T10:45:33.786Z,17.10
2018-04-07T10:48:01.965Z,17.10
2018-04-07T10:50:30.128Z,17.30
2018-04-07T10:52:58.350Z,17.40
2018-04-07T10:55:27.345Z,17.80
2018-04-07T10:57:55.448Z,17.70
2018-04-07T11:00:23.691Z,17.70
2018-04-07T11:02:51.801Z,17.80
2018-04-07T11:05:20.043Z,17.80
2018-04-07T11:07:48.173Z,17.90
2018-04-07T11:10:17.092Z,18.20
2018-04-07T11:12:45.206Z,18.20
2018-04-07T11:15:13.341Z,18.40
2018-04-07T11:17:41.508Z,18.40
2018-04-07T11:20:09.669Z,18.40
2018-04-07T11:22:37.855Z,18.50
2018-04-07T11:25:05.996Z,18.70
2018-04-07T11:27:34.913Z,19.10
2018-04-07T11:30:03.776Z,19.20
2018-04-07T11:32:32.671Z,19.30
2018-04-07T11:35:01.630Z,19.30
2018-04-07T11:37:29.727Z,19.30
2018-04-07T11:39:58.743Z,19.30
2018-04-07T11:42:27.703Z,19.20
2018-04-07T11:44:56.707Z,19.10
2018-04-07T11:47:24.846Z,19.10
2018-04-07T11:49:52.985Z,19.20
2018-04-07T11:52:21.142Z,19.10
2018-04-07T11:54:50.042Z,19.10
2018-04-07T11:57:18.201Z,19.10
2018-04-07T11:59:47.181Z,19.40
2018-04-07T12:02:15.373Z,19.40
2018-04-07T12:04:43.475Z,19.60
2018-04-07T12:07:11.622Z,19.60
2018-04-07T12:09:39.733Z,19.80
2018-04-07T12:12:08.641Z,20.10
2018-04-07T12:14:37.564Z,20.30
2018-04-07T12:17:05.813Z,20.30
2018-04-07T12:19:34.720Z,20.50
2018-04-07T12:22:02.845Z,20.50
2018-04-07T12:24:31.066Z,20.30
2018-04-07T12:26:59.237Z,20.30
2018-04-07T12:29:28.130Z,20.50
2018-04-07T12:31:56.305Z,20.50
2018-04-07T12:34:24.401Z,20.80
2018-04-07T12:36:52.644Z,21.00
2018-04-07T12:39:21.536Z,21.20
2018-04-07T12:41:49.714Z,21.10
2018-04-07T12:44:17.833Z,21.30
2018-04-07T12:46:45.946Z,21.60
2018-04-07T12:49:14.122Z,21.70
2018-04-07T12:51:42.979Z,21.90
2018-04-07T12:54:11.968Z,22.00
2018-04-07T12:56:40.848Z,22.20
2018-04-07T12:59:09.064Z,22.10
2018-04-07T13:01:38.055Z,22.50
2018-04-07T13:04:06.941Z,22.60
2018-04-07T13:06:35.901Z,22.80
2018-04-07T13:09:05.848Z,23.00
2018-04-07T13:11:34.838Z,23.30
2018-04-07T13:14:03.737Z,23.30
2018-04-07T13:16:31.861Z,23.30
2018-04-07T13:19:00.799Z,23.30
2018-04-07T13:21:28.962Z,23.30
2018-04-07T13:23:57.833Z,23.60
2018-04-07T13:26:26.741Z,23.70
2018-04-07T13:28:55.734Z,23.70
2018-04-07T13:31:24.725Z,23.90
2018-04-07T13:33:52.850Z,23.90
2018-04-07T13:36:21.783Z,24.30
2018-04-07T13:38:50.676Z,24.80
2018-04-07T13:41:18.848Z,24.80
2018-04-07T13:43:46.974Z,25.60
2018-04-07T13:46:15.193Z,26.40
2018-04-07T13:48:43.293Z,27.10
2018-04-07T13:51:11.442Z,28.20
2018-04-07T13:53:39.570Z,29.50
2018-04-07T13:56:08.457Z,32.80
2018-04-07T13:58:37.387Z,33.40
2018-04-07T14:01:05.558Z,33.20
2018-04-07T14:03:33.715Z,34.30
2018-04-07T14:06:02.618Z,34.80
2018-04-07T14:08:31.507Z,35.20
2018-04-07T14:10:59.618Z,35.10
2018-04-07T14:13:27.749Z,35.20
2018-04-07T14:15:55.927Z,36.10
2018-04-07T14:18:24.044Z,36.70
2018-04-07T14:20:52.172Z,38.00
2018-04-07T14:23:20.402Z,38.50
2018-04-07T14:25:49.300Z,39.90
2018-04-07T14:28:18.320Z,40.70
2018-04-07T14:30:47.289Z,41.10
2018-04-07T14:33:15.432Z,41.00
2018-04-07T14:35:43.655Z,41.90
2018-04-07T14:38:12.523Z,43.30
2018-04-07T14:40:41.434Z,44.10
2018-04-07T14:43:10.315Z,43.80
2018-04-07T14:45:38.565Z,43.70
2018-04-07T14:48:07.488Z,44.50
2018-04-07T14:50:36.484Z,45.20
2018-04-07T14:53:04.650Z,45.10
2018-04-07T14:55:33.537Z,45.20
2018-04-07T14:58:01.685Z,45.10
2018-04-07T15:00:30.704Z,45.20
2018-04-07T15:02:59.653Z,45.20
2018-04-07T15:05:29.478Z,45.30
2018-04-07T15:07:58.399Z,45.10
2018-04-07T15:10:26.569Z,45.10
2018-04-07T15:12:54.702Z,45.00
2018-04-07T15:15:23.624Z,45.20
2018-04-07T15:17:51.739Z,45.30
2018-04-07T15:20:19.975Z,45.10
2018-04-07T15:22:48.147Z,45.40
2018-04-07T15:25:17.140Z,45.40
2018-04-07T15:27:46.029Z,45.40
2018-04-07T15:30:14.918Z,45.50
2018-04-07T15:32:43.892Z,45.50
2018-04-07T15:35:12.081Z,45.50
2018-04-07T15:37:40.983Z,45.00
2018-04-07T15:40:09.110Z,45.00
2018-04-07T15:42:38.144Z,44.20
2018-04-07T15:45:06.269Z,44.10
2018-04-07T15:47:35.263Z,44.20
2018-04-07T15:50:04.290Z,44.00
2018-04-07T15:52:32.462Z,43.90
2018-04-07T15:55:00.637Z,43.70
2018-04-07T15:57:29.610Z,43.30
2018-04-07T15:59:58.524Z,43.40
2018-04-07T16:02:26.642Z,43.40
2018-04-07T16:04:55.544Z,43.20
2018-04-07T16:07:24.469Z,43.10
2018-04-07T16:09:52.642Z,43.10
2018-04-07T16:12:20.817Z,42.80
2018-04-07T16:14:49.002Z,42.70
2018-04-07T16:17:19.215Z,42.40
2018-04-07T16:19:47.340Z,41.80
2018-04-07T16:22:16.345Z,37.60
2018-04-07T16:24:44.477Z,37.50
2018-04-07T16:27:12.605Z,35.20
2018-04-07T16:29:40.795Z,33.00
2018-04-07T16:32:08.960Z,31.10
2018-04-07T16:34:37.085Z,29.70
2018-04-07T16:37:06.025Z,27.40
2018-04-07T16:39:34.117Z,27.20
2018-04-07T16:42:02.257Z,26.60
2018-04-07T16:44:30.366Z,25.70
2018-04-07T16:46:58.608Z,25.00
2018-04-07T16:49:26.766Z,24.50
2018-04-07T16:51:55.672Z,23.70
2018-04-07T16:54:23.844Z,23.60
2018-04-07T16:56:52.011Z,23.20
2018-04-07T16:59:20.898Z,22.50
2018-04-07T17:01:49.073Z,22.50
2018-04-07T17:04:18.071Z,22.00
2018-04-07T17:06:46.242Z,21.90
2018-04-07T17:09:14.380Z,21.80
2018-04-07T17:11:43.303Z,21.30
2018-04-07T17:14:11.454Z,21.30
2018-04-07T17:16:40.360Z,20.90
2018-04-07T17:19:08.497Z,20.90
2018-04-07T17:21:37.523Z,20.50
2018-04-07T17:24:06.379Z,20.30
2018-04-07T17:26:35.315Z,20.10
2018-04-07T17:29:03.452Z,20.00
2018-04-07T17:31:32.362Z,19.70
2018-04-07T17:34:01.223Z,19.50
2018-04-07T17:36:30.247Z,19.30
2018-04-07T17:38:58.530Z,19.20
2018-04-07T17:41:26.647Z,19.00
2018-04-07T17:43:56.299Z,18.70
2018-04-07T17:46:24.482Z,18.70
2018-04-07T17:48:52.637Z,18.60
2018-04-07T17:51:21.532Z,18.40
2018-04-07T17:53:49.650Z,18.30
2018-04-07T17:56:17.786Z,18.20
2018-04-07T17:58:45.950Z,18.00
2018-04-07T18:01:14.118Z,17.90
2018-04-07T18:03:42.291Z,17.70
2018-04-07T18:06:11.215Z,17.40
2018-04-07T18:08:39.327Z,17.40
2018-04-07T18:11:08.343Z,17.20
2018-04-07T18:13:37.212Z,17.00
2018-04-07T18:16:05.399Z,17.00
2018-04-07T18:18:33.557Z,16.90
2018-04-07T18:21:02.450Z,16.60
2018-04-07T18:23:30.645Z,16.50
2018-04-07T18:25:58.917Z,16.50
2018-04-07T18:28:27.037Z,16.40
2018-04-07T18:30:55.946Z,16.20
2018-04-07T18:33:24.866Z,16.00
2018-04-07T18:35:53.036Z,16.00
2018-04-07T18:38:22.036Z,15.80
2018-04-07T18:40:50.144Z,15.70
2018-04-07T18:43:18.294Z,15.60
2018-04-07T18:45:46.431Z,15.50
2018-04-07T18:48:14.577Z,15.40
2018-04-07T18:50:42.787Z,15.30
2018-04-07T18:53:10.928Z,15.10
2018-04-07T18:55:39.849Z,15.00
2018-04-07T18:58:08.020Z,14.90
2018-04-07T19:00:36.200Z,14.90
2018-04-07T19:03:04.347Z,14.80
2018-04-07T19:05:33.285Z,14.60
2018-04-07T19:08:01.417Z,14.60
2018-04-07T19:10:29.598Z,14.50
2018-04-07T19:12:57.745Z,14.50
2018-04-07T19:15:26.678Z,14.40
2018-04-07T19:17:54.819Z,14.30
2018-04-07T19:20:22.961Z,14.30
2018-04-07T19:22:51.166Z,14.20
2018-04-07T19:25:20.072Z,14.10
2018-04-07T19:27:48.220Z,14.00
2018-04-07T19:30:16.382Z,14.00
2018-04-07T19:32:45.310Z,13.90
2018-04-07T19:35:13.452Z,13.80
2018-04-07T19:37:42.386Z,13.80
2018-04-07T19:40:10.542Z,13.80
2018-04-07T19:42:38.673Z,13.70
2018-04-07T19:45:07.603Z,13.60
2018-04-07T19:47:35.801Z,13.60
2018-04-07T19:50:04.054Z,13.50
2018-04-07T19:52:32.194Z,13.40
2018-04-07T19:55:00.368Z,13.30
2018-04-07T19:57:29.379Z,13.10
2018-04-07T19:59:57.504Z,13.10
2018-04-07T20:02:26.518Z,13.00
2018-04-07T20:04:54.694Z,13.00
2018-04-07T20:07:23.706Z,13.00
2018-04-07T20:09:51.829Z,13.00
2018-04-07T20:12:20.869Z,12.90
2018-04-07T20:14:49.017Z,12.90
2018-04-07T20:17:17.932Z,12.80
2018-04-07T20:19:46.100Z,12.80
2018-04-07T20:22:14.229Z,12.80
2018-04-07T20:24:43.131Z,12.70
2018-04-07T20:27:12.070Z,12.70
2018-04-07T20:29:40.330Z,12.60
2018-04-07T20:32:08.468Z,12.60
2018-04-07T20:34:37.404Z,12.60
2018-04-07T20:37:05.570Z,12.50
2018-04-07T20:39:33.711Z,12.50
2018-04-07T20:42:13.654Z,12.50
2018-04-07T20:44:42.551Z,12.30
2018-04-07T20:47:10.693Z,12.20
2018-04-07T20:49:38.884Z,12.20
2018-04-07T20:52:07.785Z,12.10
2018-04-07T20:54:35.959Z,12.00
2018-04-07T20:57:04.104Z,12.00
2018-04-07T20:59:33.077Z,11.90
2018-04-07T21:02:01.221Z,11.90
2018-04-07T21:04:29.364Z,11.80
2018-04-07T21:06:58.266Z,11.70
2018-04-07T21:09:26.422Z,11.70
2018-04-07T21:11:54.615Z,11.70
2018-04-07T21:14:22.896Z,11.70
2018-04-07T21:16:51.055Z,11.70
2018-04-07T21:19:19.350Z,11.60
2018-04-07T21:21:47.467Z,11.60
2018-04-07T21:24:16.506Z,11.40
2018-04-07T21:26:44.646Z,11.40
2018-04-07T21:29:13.564Z,11.20
2018-04-07T21:31:41.693Z,11.20
2018-04-07T21:34:10.620Z,11.10
2018-04-07T21:36:38.813Z,11.10
2018-04-07T21:39:07.069Z,11.10
2018-04-07T21:41:35.200Z,11.00
2018-04-07T21:44:04.119Z,10.80
2018-04-07T21:46:32.307Z,10.80
2018-04-07T21:49:00.483Z,10.80
2018-04-07T21:51:28.586Z,10.80
2018-04-07T21:53:57.540Z,10.70
2018-04-07T21:56:25.665Z,10.70
2018-04-07T21:58:53.853Z,10.70
2018-04-07T22:01:22.772Z,10.60
2018-04-07T22:03:50.913Z,10.60
2018-04-07T22:06:19.830Z,10.50
2018-04-07T22:08:47.999Z,10.50
2018-04-07T22:11:16.144Z,10.50
2018-04-07T22:13:44.353Z,10.40
2018-04-07T22:16:12.523Z,10.30
2018-04-07T22:18:40.657Z,10.20
2018-04-07T22:21:09.578Z,10.20
2018-04-07T22:23:37.820Z,10.20
2018-04-07T22:26:06.712Z,10.20
2018-04-07T22:28:35.739Z,10.10
2018-04-07T22:31:03.912Z,10.00
2018-04-07T22:33:32.023Z,10.00
2018-04-07T22:36:00.187Z,9.90
2018-04-07T22:38:28.280Z,10.00
2018-04-07T22:40:56.500Z,9.90
2018-04-07T22:43:24.593Z,9.90
2018-04-07T22:45:52.739Z,10.00
2018-04-07T22:48:20.913Z,10.00
2018-04-07T22:50:49.196Z,9.90
2018-04-07T22:53:17.366Z,9.90
2018-04-07T22:55:45.473Z,9.80
2018-04-07T22:58:13.613Z,9.70
2018-04-07T23:00:41.752Z,9.70
2018-04-07T23:03:10.742Z,9.60
2018-04-07T23:05:39.764Z,9.60
2018-04-07T23:08:07.873Z,9.50
2018-04-07T23:10:36.112Z,9.60
2018-04-07T23:13:04.232Z,9.50
2018-04-07T23:15:33.161Z,9.30
2018-04-07T23:18:01.272Z,9.30
2018-04-07T23:20:30.349Z,9.30
2018-04-07T23:22:58.475Z,9.20
2018-04-07T23:25:26.612Z,9.20
2018-04-07T23:27:54.754Z,9.20
2018-04-07T23:30:23.116Z,9.10
2018-04-07T23:32:51.235Z,9.00
2018-04-07T23:35:19.473Z,9.00
2018-04-07T23:37:47.634Z,9.00
2018-04-07T23:40:15.739Z,9.00
2018-04-07T23:42:44.072Z,9.00
2018-04-07T23:45:12.260Z,9.00
2018-04-07T23:47:40.428Z,8.90
2018-04-07T23:50:08.598Z,9.00
2018-04-07T23:52:36.711Z,8.90
2018-04-07T23:55:04.853Z,8.90
2018-04-07T23:57:32.980Z,8.80
